createdAt,value
2018-12-11T00:00:07.987Z,9.40
2018-12-11T00:01:07.883Z,7.30
2018-12-11T00:02:07.798Z,8.00
2018-12-11T00:03:07.677Z,6.60
2018-12-11T00:04:07.573Z,8.00
2018-12-11T00:05:07.473Z,6.60
2018-12-11T00:06:07.368Z,8.30
2018-12-11T00:07:07.280Z,9.10
2018-12-11T00:08:07.163Z,9.80
2018-12-11T00:09:07.063Z,8.20
2018-12-11T00:10:06.958Z,8.30
2018-12-11T00:11:06.854Z,7.30
2018-12-11T00:12:06.769Z,7.70
2018-12-11T00:13:06.652Z,7.30
2018-12-11T00:14:06.544Z,7.20
2018-12-11T00:15:06.443Z,6.50
2018-12-11T00:16:06.339Z,9.90
2018-12-11T00:17:06.256Z,6.90
2018-12-11T00:18:06.140Z,7.20
2018-12-11T00:19:06.036Z,8.70
2018-12-11T00:20:05.931Z,7.10
2018-12-11T00:21:05.850Z,7.30
2018-12-11T00:22:05.741Z,9.20
2018-12-11T00:23:05.621Z,7.70
2018-12-11T00:24:05.520Z,8.50
2018-12-11T00:25:05.415Z,7.70
2018-12-11T00:26:05.313Z,7.10
2018-12-11T00:27:05.225Z,7.10
2018-12-11T00:28:05.109Z,6.80
2018-12-11T00:29:05.011Z,6.90
2018-12-11T00:30:04.902Z,9.50
2018-12-11T00:31:04.804Z,9.30
2018-12-11T00:32:04.715Z,6.90
2018-12-11T00:33:04.592Z,6.30
2018-12-11T00:34:04.495Z,8.40
2018-12-11T00:35:04.388Z,6.20
2018-12-11T00:36:04.288Z,7.00
2018-12-11T00:37:04.200Z,6.90
2018-12-11T00:38:04.079Z,7.90
2018-12-11T00:39:03.978Z,6.00
2018-12-11T00:40:03.878Z,6.60
2018-12-11T00:41:03.775Z,6.40
2018-12-11T00:42:03.687Z,5.60
2018-12-11T00:43:03.564Z,6.10
2018-12-11T00:44:03.463Z,6.90
2018-12-11T00:45:03.363Z,6.00
2018-12-11T00:46:03.268Z,6.80
2018-12-11T00:47:03.160Z,7.40
2018-12-11T00:48:03.071Z,7.60
2018-12-11T00:49:02.950Z,6.10
2018-12-11T00:50:02.848Z,8.40
2018-12-11T00:51:02.745Z,7.00
2018-12-11T00:52:02.648Z,6.10
2018-12-11T00:53:02.554Z,6.70
2018-12-11T00:54:02.440Z,6.40
2018-12-11T00:55:02.334Z,8.10
2018-12-11T00:56:02.333Z,8.10
2018-12-11T00:57:02.129Z,7.60
2018-12-11T00:58:02.047Z,6.10
2018-12-11T00:59:01.925Z,6.90
2018-12-11T01:00:01.819Z,7.20
2018-12-11T01:01:01.718Z,5.70
2018-12-11T01:02:01.616Z,4.80
2018-12-11T01:03:01.631Z,7.20
2018-12-11T01:04:01.408Z,8.60
2018-12-11T01:05:01.309Z,7.40
2018-12-11T01:06:01.202Z,9.40
2018-12-11T01:07:01.101Z,7.30
2018-12-11T01:08:01.016Z,8.50
2018-12-11T01:09:00.896Z,9.50
2018-12-11T01:10:00.792Z,6.10
2018-12-11T01:11:00.693Z,6.10
2018-12-11T01:12:00.588Z,7.50
2018-12-11T01:13:00.505Z,7.80
2018-12-11T01:14:00.383Z,7.70
2018-12-11T01:15:00.279Z,7.20
2018-12-11T01:16:00.171Z,4.40
2018-12-11T01:17:00.174Z,6.20
2018-12-11T01:17:59.994Z,6.90
2018-12-11T01:18:59.867Z,7.10
2018-12-11T01:19:59.766Z,6.40
2018-12-11T01:20:59.663Z,7.30
2018-12-11T01:21:59.563Z,7.50
2018-12-11T01:22:59.472Z,5.60
2018-12-11T01:23:59.449Z,5.80
2018-12-11T01:24:59.248Z,6.70
2018-12-11T01:25:59.153Z,6.30
2018-12-11T01:26:59.042Z,7.70
2018-12-11T01:27:58.957Z,7.40
2018-12-11T01:28:58.846Z,6.00
2018-12-11T01:29:58.741Z,7.00
2018-12-11T01:30:58.730Z,6.50
2018-12-11T01:31:58.531Z,7.40
2018-12-11T01:32:58.447Z,8.50
2018-12-11T01:33:58.323Z,7.20
2018-12-11T01:34:58.221Z,8.30
2018-12-11T01:35:58.117Z,7.40
2018-12-11T01:36:58.018Z,5.70
2018-12-11T01:37:57.927Z,5.50
2018-12-11T01:38:57.809Z,6.20
2018-12-11T01:39:57.705Z,8.30
2018-12-11T01:40:57.606Z,7.80
2018-12-11T01:41:57.503Z,7.00
2018-12-11T01:42:57.419Z,7.10
2018-12-11T01:43:57.295Z,6.90
2018-12-11T01:44:57.192Z,6.30
2018-12-11T01:45:57.089Z,9.20
2018-12-11T01:46:56.987Z,8.10
2018-12-11T01:47:56.908Z,7.50
2018-12-11T01:48:56.785Z,8.10
2018-12-11T01:49:56.678Z,6.50
2018-12-11T01:50:56.581Z,7.90
2018-12-11T01:51:56.474Z,6.40
2018-12-11T01:52:56.386Z,8.20
2018-12-11T01:53:56.272Z,7.40
2018-12-11T01:54:56.169Z,8.60
2018-12-11T01:55:56.061Z,5.90
2018-12-11T01:56:55.963Z,6.00
2018-12-11T01:57:55.873Z,7.90
2018-12-11T01:58:55.757Z,7.80
2018-12-11T01:59:55.650Z,7.70
2018-12-11T02:00:55.551Z,7.60
2018-12-11T02:01:55.449Z,7.80
2018-12-11T02:02:55.365Z,5.60
2018-12-11T02:03:55.242Z,6.60
2018-12-11T02:04:55.151Z,5.80
2018-12-11T02:05:55.038Z,9.20
2018-12-11T02:06:55.035Z,6.80
2018-12-11T02:07:54.844Z,8.40
2018-12-11T02:08:54.728Z,7.60
2018-12-11T02:09:54.624Z,6.90
2018-12-11T02:10:54.523Z,8.30
2018-12-11T02:11:54.419Z,7.80
2018-12-11T02:12:54.336Z,9.50
2018-12-11T02:13:54.330Z,10.30
2018-12-11T02:14:54.108Z,8.00
2018-12-11T02:15:54.006Z,7.40
2018-12-11T02:16:53.905Z,8.90
2018-12-11T02:17:53.818Z,8.60
2018-12-11T02:18:53.701Z,7.40
2018-12-11T02:19:53.593Z,9.60
2018-12-11T02:20:53.601Z,7.80
2018-12-11T02:21:53.396Z,10.60
2018-12-11T02:22:53.307Z,9.60
2018-12-11T02:23:53.189Z,11.00
2018-12-11T02:24:53.080Z,8.60
2018-12-11T02:25:52.978Z,9.80
2018-12-11T02:26:52.877Z,12.70
2018-12-11T02:27:52.888Z,9.70
2018-12-11T02:28:52.669Z,9.10
2018-12-11T02:29:52.566Z,10.10
2018-12-11T02:30:52.952Z,11.10
2018-12-11T02:31:52.362Z,9.50
2018-12-11T02:32:52.270Z,8.70
2018-12-11T02:33:52.480Z,11.30
2018-12-11T02:34:52.155Z,9.60
2018-12-11T02:35:51.955Z,10.40
2018-12-11T02:36:51.855Z,13.10
2018-12-11T02:37:51.749Z,12.10
2018-12-11T02:38:51.662Z,9.40
2018-12-11T02:39:51.553Z,11.80
2018-12-11T02:40:51.551Z,9.50
2018-12-11T02:41:51.337Z,14.10
2018-12-11T02:42:51.237Z,13.10
2018-12-11T02:43:51.143Z,10.00
2018-12-11T02:44:51.028Z,13.10
2018-12-11T02:45:50.925Z,11.80
2018-12-11T02:46:50.820Z,11.40
2018-12-11T02:47:50.724Z,9.90
2018-12-11T02:48:50.633Z,11.70
2018-12-11T02:49:50.513Z,12.10
2018-12-11T02:50:50.409Z,12.60
2018-12-11T02:51:50.307Z,11.00
2018-12-11T02:52:50.206Z,13.90
2018-12-11T02:53:50.118Z,13.60
2018-12-11T02:54:50.089Z,13.60
2018-12-11T02:55:49.895Z,13.40
2018-12-11T02:56:49.796Z,16.00
2018-12-11T02:57:49.692Z,12.30
2018-12-11T02:58:49.605Z,16.40
2018-12-11T02:59:49.491Z,14.70
2018-12-11T03:00:49.383Z,13.90
2018-12-11T03:01:49.277Z,18.50
2018-12-11T03:02:49.177Z,15.70
2018-12-11T03:03:49.092Z,17.90
2018-12-11T03:04:48.971Z,16.00
2018-12-11T03:05:48.868Z,15.60
2018-12-11T03:06:48.769Z,18.30
2018-12-11T03:07:48.665Z,12.70
2018-12-11T03:08:48.577Z,19.40
2018-12-11T03:09:48.456Z,14.10
2018-12-11T03:10:48.356Z,17.70
2018-12-11T03:11:48.251Z,16.60
2018-12-11T03:12:48.151Z,16.90
2018-12-11T03:13:48.065Z,14.30
2018-12-11T03:14:47.941Z,16.70
2018-12-11T03:15:47.843Z,16.90
2018-12-11T03:16:47.736Z,16.20
2018-12-11T03:17:47.644Z,12.90
2018-12-11T03:18:47.549Z,16.00
2018-12-11T03:19:47.428Z,18.80
2018-12-11T03:20:47.325Z,17.70
2018-12-11T03:21:47.228Z,16.80
2018-12-11T03:22:47.121Z,15.00
2018-12-11T03:23:47.035Z,18.20
2018-12-11T03:24:46.915Z,15.50
2018-12-11T03:25:46.818Z,21.20
2018-12-11T03:26:46.730Z,15.40
2018-12-11T03:27:46.607Z,18.70
2018-12-11T03:28:46.521Z,15.30
2018-12-11T03:29:46.402Z,16.10
2018-12-11T03:30:46.300Z,15.90
2018-12-11T03:31:46.199Z,15.40
2018-12-11T03:32:46.127Z,14.60
2018-12-11T03:33:46.023Z,17.60
2018-12-11T03:34:45.891Z,17.70
2018-12-11T03:35:45.785Z,20.30
2018-12-11T03:36:45.683Z,18.80
2018-12-11T03:37:45.578Z,21.40
2018-12-11T03:38:45.491Z,20.60
2018-12-11T03:39:45.376Z,21.30
2018-12-11T03:40:45.274Z,18.50
2018-12-11T03:41:45.173Z,16.50
2018-12-11T03:42:45.066Z,25.10
2018-12-11T03:43:45.079Z,19.00
2018-12-11T03:44:44.863Z,19.10
2018-12-11T03:45:44.787Z,22.50
2018-12-11T03:46:44.653Z,17.80
2018-12-11T03:47:44.549Z,19.60
2018-12-11T03:48:44.465Z,14.60
2018-12-11T03:49:44.345Z,14.90
2018-12-11T03:50:44.241Z,16.60
2018-12-11T03:51:44.141Z,16.90
2018-12-11T03:52:44.036Z,18.00
2018-12-11T03:53:43.953Z,17.60
2018-12-11T03:54:43.885Z,17.00
2018-12-11T03:55:43.731Z,18.80
2018-12-11T03:56:43.633Z,17.60
2018-12-11T03:57:43.624Z,18.80
2018-12-11T03:58:43.444Z,17.80
2018-12-11T03:59:43.320Z,19.20
2018-12-11T04:00:43.213Z,18.10
2018-12-11T04:01:43.115Z,16.00
2018-12-11T04:02:43.008Z,18.50
2018-12-11T04:03:42.932Z,14.10
2018-12-11T04:04:42.917Z,14.00
2018-12-11T04:05:42.705Z,15.70
2018-12-11T04:06:42.599Z,20.60
2018-12-11T04:07:42.496Z,21.00
2018-12-11T04:08:42.412Z,17.30
2018-12-11T04:09:42.303Z,15.90
2018-12-11T04:10:42.190Z,12.10
2018-12-11T04:11:42.188Z,17.00
2018-12-11T04:12:41.995Z,17.30
2018-12-11T04:13:41.896Z,19.00
2018-12-11T04:14:41.774Z,14.90
2018-12-11T04:15:41.676Z,17.10
2018-12-11T04:16:41.571Z,15.00
2018-12-11T04:17:41.471Z,18.20
2018-12-11T04:18:41.482Z,15.50
2018-12-11T04:19:41.280Z,16.90
2018-12-11T04:20:41.163Z,18.00
2018-12-11T04:21:41.061Z,18.80
2018-12-11T04:22:40.956Z,21.90
2018-12-11T04:23:40.854Z,15.50
2018-12-11T04:24:40.767Z,15.70
2018-12-11T04:25:40.745Z,17.80
2018-12-11T04:26:40.541Z,14.80
2018-12-11T04:27:40.442Z,18.90
2018-12-11T04:28:40.341Z,15.10
2018-12-11T04:29:40.252Z,14.50
2018-12-11T04:30:40.132Z,13.80
2018-12-11T04:31:40.030Z,10.10
2018-12-11T04:32:40.030Z,22.20
2018-12-11T04:33:39.824Z,19.40
2018-12-11T04:34:39.738Z,16.50
2018-12-11T04:35:39.620Z,15.00
2018-12-11T04:36:39.522Z,16.60
2018-12-11T04:37:39.410Z,14.60
2018-12-11T04:38:39.309Z,19.90
2018-12-11T04:39:39.330Z,18.50
2018-12-11T04:40:39.104Z,12.80
2018-12-11T04:41:39.000Z,17.90
2018-12-11T04:42:38.897Z,15.50
2018-12-11T04:43:38.796Z,17.80
2018-12-11T04:44:38.707Z,16.70
2018-12-11T04:45:38.591Z,15.30
2018-12-11T04:46:38.589Z,14.00
2018-12-11T04:47:38.384Z,16.60
2018-12-11T04:48:38.278Z,14.50
2018-12-11T04:49:38.195Z,18.70
2018-12-11T04:50:38.075Z,13.80
2018-12-11T04:51:37.970Z,17.00
2018-12-11T04:52:37.871Z,15.60
2018-12-11T04:53:37.871Z,17.60
2018-12-11T04:54:37.679Z,12.50
2018-12-11T04:55:37.560Z,16.30
2018-12-11T04:56:37.461Z,17.10
2018-12-11T04:57:37.356Z,16.30
2018-12-11T04:58:37.252Z,15.30
2018-12-11T04:59:37.178Z,15.70
2018-12-11T05:00:37.147Z,14.50
2018-12-11T05:01:36.940Z,13.30
2018-12-11T05:02:36.838Z,12.60
2018-12-11T05:03:36.738Z,16.20
2018-12-11T05:04:36.653Z,16.60
2018-12-11T05:05:36.537Z,14.70
2018-12-11T05:06:36.551Z,11.50
2018-12-11T05:07:36.327Z,15.10
2018-12-11T05:08:36.963Z,14.60
2018-12-11T05:09:36.138Z,15.60
2018-12-11T05:10:36.015Z,18.60
2018-12-11T05:11:35.915Z,16.80
2018-12-11T05:12:35.813Z,16.60
2018-12-11T05:13:35.710Z,15.40
2018-12-11T05:14:35.622Z,16.80
2018-12-11T05:15:35.507Z,17.30
2018-12-11T05:16:35.397Z,15.60
2018-12-11T05:17:35.298Z,19.30
2018-12-11T05:18:35.196Z,16.30
2018-12-11T05:19:35.111Z,14.20
2018-12-11T05:20:34.985Z,15.90
2018-12-11T05:21:34.989Z,13.90
2018-12-11T05:22:34.783Z,16.40
2018-12-11T05:23:34.681Z,17.80
2018-12-11T05:24:34.597Z,14.90
2018-12-11T05:25:34.472Z,15.30
2018-12-11T05:26:34.375Z,11.90
2018-12-11T05:27:34.455Z,13.30
2018-12-11T05:28:34.166Z,13.30
2018-12-11T05:29:34.081Z,14.50
2018-12-11T05:30:33.958Z,16.60
2018-12-11T05:31:33.852Z,10.40
2018-12-11T05:32:33.752Z,11.50
2018-12-11T05:33:33.648Z,14.40
2018-12-11T05:34:33.560Z,13.10
2018-12-11T05:35:33.442Z,11.10
2018-12-11T05:36:33.339Z,18.70
2018-12-11T05:37:33.242Z,15.70
2018-12-11T05:38:33.135Z,13.40
2018-12-11T05:39:33.051Z,12.90
2018-12-11T05:40:32.928Z,11.40
2018-12-11T05:41:32.828Z,19.90
2018-12-11T05:42:32.729Z,16.30
2018-12-11T05:43:32.619Z,11.90
2018-12-11T05:44:32.535Z,16.00
2018-12-11T05:45:32.413Z,14.50
2018-12-11T05:46:32.312Z,12.80
2018-12-11T05:47:32.207Z,13.80
2018-12-11T05:48:32.105Z,16.60
2018-12-11T05:49:32.022Z,14.50
2018-12-11T05:50:31.901Z,16.80
2018-12-11T05:51:31.796Z,14.90
2018-12-11T05:52:31.697Z,21.70
2018-12-11T05:53:31.593Z,12.90
2018-12-11T05:54:31.508Z,16.60
2018-12-11T05:55:31.383Z,16.20
2018-12-11T05:56:31.284Z,17.80
2018-12-11T05:57:31.179Z,14.20
2018-12-11T05:58:31.078Z,13.50
2018-12-11T05:59:30.990Z,16.70
2018-12-11T06:00:30.871Z,17.80
2018-12-11T06:01:30.767Z,19.70
2018-12-11T06:02:30.666Z,21.80
2018-12-11T06:03:30.558Z,17.40
2018-12-11T06:04:30.462Z,14.70
2018-12-11T06:05:30.378Z,15.50
2018-12-11T06:06:30.252Z,10.50
2018-12-11T06:07:30.149Z,14.80
2018-12-11T06:08:30.051Z,14.40
2018-12-11T06:09:29.948Z,12.90
2018-12-11T06:10:29.863Z,14.30
2018-12-11T06:11:29.743Z,15.70
2018-12-11T06:12:29.637Z,15.40
2018-12-11T06:13:29.547Z,12.90
2018-12-11T06:14:29.434Z,14.30
2018-12-11T06:15:29.346Z,14.60
2018-12-11T06:16:29.326Z,13.80
2018-12-11T06:17:29.128Z,15.80
2018-12-11T06:18:29.026Z,15.00
2018-12-11T06:19:28.922Z,14.90
2018-12-11T06:20:28.832Z,13.80
2018-12-11T06:21:28.715Z,10.90
2018-12-11T06:22:28.609Z,13.70
2018-12-11T06:23:28.622Z,15.00
2018-12-11T06:24:28.405Z,14.50
2018-12-11T06:25:28.320Z,11.70
2018-12-11T06:26:28.199Z,13.40
2018-12-11T06:27:28.166Z,14.50
2018-12-11T06:28:27.993Z,14.60
2018-12-11T06:29:27.887Z,14.80
2018-12-11T06:30:27.908Z,11.70
2018-12-11T06:31:27.686Z,13.20
2018-12-11T06:32:27.585Z,14.10
2018-12-11T06:33:27.480Z,13.20
2018-12-11T06:34:27.373Z,15.60
2018-12-11T06:35:27.288Z,13.50
2018-12-11T06:36:27.170Z,15.10
2018-12-11T06:37:27.171Z,8.00
2018-12-11T06:38:26.970Z,13.40
2018-12-11T06:39:26.862Z,12.20
2018-12-11T06:40:26.778Z,12.50
2018-12-11T06:41:26.657Z,10.50
2018-12-11T06:42:26.550Z,12.80
2018-12-11T06:43:26.447Z,13.00
2018-12-11T06:44:26.454Z,12.30
2018-12-11T06:45:26.266Z,10.50
2018-12-11T06:46:26.143Z,11.80
2018-12-11T06:47:26.043Z,12.20
2018-12-11T06:48:25.939Z,12.90
2018-12-11T06:49:25.832Z,12.30
2018-12-11T06:50:25.746Z,11.90
2018-12-11T06:51:25.627Z,13.00
2018-12-11T06:52:25.525Z,13.80
2018-12-11T06:53:25.421Z,11.30
2018-12-11T06:54:25.328Z,15.00
2018-12-11T06:55:25.235Z,13.10
2018-12-11T06:56:25.125Z,14.00
2018-12-11T06:57:25.011Z,12.10
2018-12-11T06:58:24.908Z,12.20
2018-12-11T06:59:24.806Z,12.70
2018-12-11T07:00:24.719Z,12.50
2018-12-11T07:01:24.597Z,12.40
2018-12-11T07:02:24.494Z,9.30
2018-12-11T07:03:24.395Z,9.50
2018-12-11T07:04:24.292Z,13.90
2018-12-11T07:05:24.204Z,12.80
2018-12-11T07:06:24.090Z,13.30
2018-12-11T07:07:23.984Z,11.00
2018-12-11T07:08:23.887Z,10.80
2018-12-11T07:09:23.777Z,11.50
2018-12-11T07:10:23.688Z,9.70
2018-12-11T07:11:23.571Z,11.10
2018-12-11T07:12:23.472Z,11.50
2018-12-11T07:13:23.367Z,13.70
2018-12-11T07:14:23.263Z,14.10
2018-12-11T07:15:23.176Z,12.10
2018-12-11T07:16:23.063Z,10.20
2018-12-11T07:17:22.958Z,10.10
2018-12-11T07:18:25.933Z,9.80
2018-12-11T07:19:22.746Z,10.60
2018-12-11T07:20:22.669Z,10.60
2018-12-11T07:21:22.544Z,11.10
2018-12-11T07:22:22.440Z,11.30
2018-12-11T07:23:22.335Z,12.60
2018-12-11T07:24:22.236Z,11.70
2018-12-11T07:25:22.152Z,10.90
2018-12-11T07:26:22.027Z,12.30
2018-12-11T07:27:21.948Z,12.60
2018-12-11T07:28:21.821Z,12.50
2018-12-11T07:29:22.035Z,10.90
2018-12-11T07:30:21.632Z,11.70
2018-12-11T07:31:21.574Z,14.90
2018-12-11T07:32:21.412Z,10.70
2018-12-11T07:33:21.311Z,11.30
2018-12-11T07:34:21.205Z,12.50
2018-12-11T07:35:21.123Z,12.90
2018-12-11T07:36:21.012Z,13.10
2018-12-11T07:37:20.904Z,12.70
2018-12-11T07:38:20.795Z,14.80
2018-12-11T07:39:20.694Z,13.80
2018-12-11T07:40:20.606Z,13.00
2018-12-11T07:41:20.491Z,12.80
2018-12-11T07:42:20.385Z,10.70
2018-12-11T07:43:20.285Z,13.40
2018-12-11T07:44:20.177Z,12.10
2018-12-11T07:45:20.092Z,17.90
2018-12-11T07:46:19.977Z,9.40
2018-12-11T07:47:19.875Z,11.70
2018-12-11T07:48:19.770Z,12.50
2018-12-11T07:49:19.668Z,13.70
2018-12-11T07:50:19.568Z,13.70
2018-12-11T07:51:19.481Z,13.70
2018-12-11T07:52:19.359Z,11.60
2018-12-11T07:53:19.260Z,13.80
2018-12-11T07:54:19.150Z,13.80
2018-12-11T07:55:19.070Z,12.80
2018-12-11T07:56:18.951Z,13.40
2018-12-11T07:57:18.846Z,11.90
2018-12-11T07:58:18.740Z,10.30
2018-12-11T07:59:18.641Z,13.20
2018-12-11T08:00:18.540Z,10.20
2018-12-11T08:01:18.450Z,13.80
2018-12-11T08:02:18.330Z,13.00
2018-12-11T08:03:18.232Z,9.60
2018-12-11T08:04:18.132Z,12.40
2018-12-11T08:05:18.026Z,11.70
2018-12-11T08:06:17.935Z,11.00
2018-12-11T08:07:17.821Z,11.80
2018-12-11T08:08:17.719Z,11.30
2018-12-11T08:09:17.615Z,12.90
2018-12-11T08:10:17.514Z,14.80
2018-12-11T08:11:17.424Z,11.70
2018-12-11T08:12:17.307Z,9.10
2018-12-11T08:13:17.206Z,12.90
2018-12-11T08:14:17.112Z,12.00
2018-12-11T08:15:16.999Z,13.60
2018-12-11T08:16:16.912Z,12.30
2018-12-11T08:17:16.793Z,11.40
2018-12-11T08:18:16.695Z,11.60
2018-12-11T08:19:16.586Z,9.50
2018-12-11T08:20:16.488Z,12.50
2018-12-11T08:21:16.536Z,11.80
2018-12-11T08:22:16.281Z,13.10
2018-12-11T08:23:16.188Z,12.20
2018-12-11T08:24:16.076Z,13.20
2018-12-11T08:25:15.972Z,10.00
2018-12-11T08:26:15.886Z,11.60
2018-12-11T08:27:15.767Z,14.60
2018-12-11T08:28:15.663Z,11.00
2018-12-11T08:29:15.564Z,12.60
2018-12-11T08:30:15.462Z,10.30
2018-12-11T08:31:15.374Z,10.50
2018-12-11T08:32:15.262Z,12.50
2018-12-11T08:33:15.154Z,11.30
2018-12-11T08:34:15.048Z,12.20
2018-12-11T08:35:14.949Z,11.60
2018-12-11T08:36:14.863Z,11.20
2018-12-11T08:37:14.743Z,11.70
2018-12-11T08:38:14.639Z,11.30
2018-12-11T08:39:14.537Z,11.60
2018-12-11T08:40:14.434Z,11.50
2018-12-11T08:41:14.349Z,13.20
2018-12-11T08:42:14.229Z,8.00
2018-12-11T08:43:14.241Z,10.20
2018-12-11T08:44:14.029Z,12.20
2018-12-11T08:45:13.926Z,9.80
2018-12-11T08:46:13.839Z,11.40
2018-12-11T08:47:13.716Z,11.30
2018-12-11T08:48:13.618Z,10.70
2018-12-11T08:49:13.513Z,9.70
2018-12-11T08:50:13.527Z,9.80
2018-12-11T08:51:13.327Z,12.60
2018-12-11T08:52:13.209Z,10.60
2018-12-11T08:53:13.115Z,9.30
2018-12-11T08:54:13.002Z,13.60
2018-12-11T08:55:12.916Z,10.10
2018-12-11T08:56:12.813Z,8.10
2018-12-11T08:57:12.797Z,12.90
2018-12-11T08:58:12.591Z,9.40
2018-12-11T08:59:12.491Z,8.30
2018-12-11T09:00:12.385Z,10.80
2018-12-11T09:01:12.303Z,8.50
2018-12-11T09:02:12.179Z,10.00
2018-12-11T09:03:12.082Z,9.70
2018-12-11T09:04:12.087Z,7.50
2018-12-11T09:05:11.879Z,9.40
2018-12-11T09:06:11.788Z,9.80
2018-12-11T09:07:11.671Z,9.20
2018-12-11T09:08:11.579Z,10.10
2018-12-11T09:09:11.470Z,10.90
2018-12-11T09:10:11.921Z,11.30
2018-12-11T09:11:11.373Z,9.80
2018-12-11T09:12:11.157Z,12.00
2018-12-11T09:13:11.056Z,10.70
2018-12-11T09:14:10.955Z,12.20
2018-12-11T09:15:10.849Z,11.60
2018-12-11T09:16:10.766Z,11.50
2018-12-11T09:17:10.689Z,10.50
2018-12-11T09:18:10.643Z,9.80
2018-12-11T09:19:10.442Z,10.30
2018-12-11T09:20:10.338Z,11.10
2018-12-11T09:21:10.254Z,10.00
2018-12-11T09:22:10.134Z,13.10
2018-12-11T09:23:10.032Z,12.30
2018-12-11T09:24:09.930Z,13.00
2018-12-11T09:25:09.929Z,10.80
2018-12-11T09:26:09.743Z,9.60
2018-12-11T09:27:09.625Z,10.00
2018-12-11T09:28:11.105Z,11.10
2018-12-11T09:29:09.445Z,11.80
2018-12-11T09:30:09.314Z,12.60
2018-12-11T09:31:09.229Z,9.70
2018-12-11T09:32:09.212Z,12.00
2018-12-11T09:33:09.008Z,10.00
2018-12-11T09:34:08.906Z,11.00
2018-12-11T09:35:08.806Z,7.90
2018-12-11T09:36:08.719Z,12.50
2018-12-11T09:37:08.600Z,10.70
2018-12-11T09:38:08.510Z,9.90
2018-12-11T09:39:08.499Z,9.90
2018-12-11T09:40:08.311Z,11.20
2018-12-11T09:41:08.192Z,8.20
2018-12-11T09:42:08.104Z,8.50
2018-12-11T09:43:07.985Z,8.90
2018-12-11T09:44:07.884Z,9.50
2018-12-11T09:45:07.783Z,9.60
2018-12-11T09:46:07.787Z,13.30
2018-12-11T09:47:07.592Z,7.70
2018-12-11T09:48:07.474Z,9.30
2018-12-11T09:49:07.368Z,8.90
2018-12-11T09:50:07.263Z,11.80
2018-12-11T09:51:07.167Z,9.50
2018-12-11T09:52:07.182Z,7.30
2018-12-11T09:53:06.961Z,8.30
2018-12-11T09:54:06.853Z,10.60
2018-12-11T09:55:06.752Z,8.60
2018-12-11T09:56:06.656Z,12.30
2018-12-11T09:57:06.570Z,16.60
2018-12-11T09:58:06.449Z,8.90
2018-12-11T09:59:06.344Z,13.50
2018-12-11T10:00:06.243Z,10.40
2018-12-11T10:01:06.144Z,9.90
2018-12-11T10:02:06.055Z,8.50
2018-12-11T10:03:05.941Z,10.90
2018-12-11T10:04:05.835Z,12.10
2018-12-11T10:05:05.734Z,10.10
2018-12-11T10:06:05.631Z,10.40
2018-12-11T10:07:05.640Z,10.10
2018-12-11T10:08:05.423Z,7.10
2018-12-11T10:09:05.326Z,10.50
2018-12-11T10:10:05.220Z,12.30
2018-12-11T10:11:05.117Z,9.80
2018-12-11T10:12:05.026Z,10.70
2018-12-11T10:13:05.010Z,9.60
2018-12-11T10:14:04.808Z,10.50
2018-12-11T10:15:04.708Z,10.50
2018-12-11T10:16:04.606Z,10.00
2018-12-11T10:17:04.514Z,9.20
2018-12-11T10:18:04.396Z,11.40
2018-12-11T10:19:04.294Z,10.30
2018-12-11T10:20:05.484Z,13.20
2018-12-11T10:21:04.090Z,9.80
2018-12-11T10:22:04.006Z,11.30
2018-12-11T10:23:03.886Z,11.40
2018-12-11T10:24:03.785Z,13.20
2018-12-11T10:25:03.682Z,17.00
2018-12-11T10:26:03.584Z,11.80
2018-12-11T10:27:03.491Z,10.00
2018-12-11T10:28:03.376Z,11.50
2018-12-11T10:29:03.273Z,11.70
2018-12-11T10:30:03.171Z,11.40
2018-12-11T10:31:03.064Z,12.00
2018-12-11T10:32:02.978Z,13.10
2018-12-11T10:33:02.877Z,11.60
2018-12-11T10:34:02.758Z,8.90
2018-12-11T10:35:02.658Z,10.60
2018-12-11T10:36:02.559Z,11.90
2018-12-11T10:37:02.473Z,9.50
2018-12-11T10:38:02.352Z,11.40
2018-12-11T10:39:02.248Z,11.40
2018-12-11T10:40:02.153Z,9.30
2018-12-11T10:41:02.042Z,10.60
2018-12-11T10:42:01.957Z,10.70
2018-12-11T10:43:02.499Z,11.60
2018-12-11T10:44:01.734Z,9.20
2018-12-11T10:45:01.635Z,8.10
2018-12-11T10:46:01.528Z,11.00
2018-12-11T10:47:01.449Z,10.30
2018-12-11T10:48:01.323Z,9.20
2018-12-11T10:49:01.225Z,9.00
2018-12-11T10:50:01.124Z,11.70
2018-12-11T10:51:01.017Z,11.00
2018-12-11T10:52:00.941Z,12.00
2018-12-11T10:53:01.936Z,9.20
2018-12-11T10:54:00.708Z,9.10
2018-12-11T10:55:00.611Z,9.60
2018-12-11T10:56:00.508Z,9.60
2018-12-11T10:57:00.426Z,8.00
2018-12-11T10:58:00.303Z,11.30
2018-12-11T10:59:00.197Z,12.00
2018-12-11T11:00:00.094Z,9.80
2018-12-11T11:00:59.992Z,10.40
2018-12-11T11:01:59.906Z,10.20
2018-12-11T11:02:59.791Z,10.90
2018-12-11T11:03:59.690Z,9.40
2018-12-11T11:04:59.588Z,9.50
2018-12-11T11:05:59.483Z,9.80
2018-12-11T11:06:59.397Z,9.10
2018-12-11T11:07:59.277Z,8.70
2018-12-11T11:08:59.174Z,8.00
2018-12-11T11:09:59.073Z,11.80
2018-12-11T11:10:58.972Z,8.50
2018-12-11T11:11:58.913Z,10.00
2018-12-11T11:12:58.762Z,7.70
2018-12-11T11:13:58.691Z,10.00
2018-12-11T11:14:58.568Z,9.40
2018-12-11T11:15:58.562Z,9.50
2018-12-11T11:16:58.376Z,9.60
2018-12-11T11:17:58.256Z,8.70
2018-12-11T11:18:58.151Z,10.70
2018-12-11T11:19:58.054Z,11.20
2018-12-11T11:20:57.947Z,10.50
2018-12-11T11:21:57.862Z,9.00
2018-12-11T11:22:57.746Z,9.00
2018-12-11T11:23:57.640Z,10.00
2018-12-11T11:24:57.540Z,9.80
2018-12-11T11:25:57.435Z,10.10
2018-12-11T11:26:57.339Z,11.00
2018-12-11T11:27:57.246Z,9.10
2018-12-11T11:28:57.140Z,8.10
2018-12-11T11:29:57.146Z,10.40
2018-12-11T11:30:56.925Z,10.30
2018-12-11T11:31:56.828Z,8.80
2018-12-11T11:32:56.740Z,10.30
2018-12-11T11:33:58.571Z,8.10
2018-12-11T11:34:56.517Z,9.10
2018-12-11T11:35:56.414Z,9.30
2018-12-11T11:36:56.416Z,9.30
2018-12-11T11:37:56.225Z,8.40
2018-12-11T11:38:56.109Z,10.60
2018-12-11T11:39:56.004Z,10.40
2018-12-11T11:40:55.904Z,10.30
2018-12-11T11:41:55.799Z,11.50
2018-12-11T11:42:55.722Z,11.10
2018-12-11T11:43:55.701Z,12.40
2018-12-11T11:44:55.491Z,13.30
2018-12-11T11:45:55.388Z,10.40
2018-12-11T11:46:55.292Z,9.20
2018-12-11T11:47:55.202Z,11.90
2018-12-11T11:48:55.083Z,11.00
2018-12-11T11:49:54.983Z,10.80
2018-12-11T11:50:54.981Z,10.80
2018-12-11T11:51:54.777Z,12.80
2018-12-11T11:52:54.689Z,12.80
2018-12-11T11:53:54.569Z,11.90
2018-12-11T11:54:54.472Z,11.20
2018-12-11T11:55:54.368Z,11.90
2018-12-11T11:56:54.262Z,9.20
2018-12-11T11:57:54.277Z,12.20
2018-12-11T11:58:54.062Z,12.10
2018-12-11T11:59:53.956Z,11.40
2018-12-11T12:00:53.856Z,11.60
2018-12-11T12:01:53.750Z,9.20
2018-12-11T12:02:53.669Z,10.30
2018-12-11T12:03:53.550Z,15.60
2018-12-11T12:04:53.549Z,12.10
2018-12-11T12:05:53.342Z,13.70
2018-12-11T12:06:53.240Z,12.90
2018-12-11T12:07:53.155Z,11.10
2018-12-11T12:08:59.184Z,8.70
2018-12-11T12:09:52.934Z,11.10
2018-12-11T12:10:52.830Z,9.60
2018-12-11T12:11:52.832Z,9.30
2018-12-11T12:12:52.645Z,9.10
2018-12-11T12:13:52.527Z,8.30
2018-12-11T12:14:52.421Z,10.50
2018-12-11T12:15:52.338Z,9.70
2018-12-11T12:16:52.219Z,9.70
2018-12-11T12:17:52.132Z,8.40
2018-12-11T12:18:52.114Z,8.70
2018-12-11T12:19:51.911Z,10.30
2018-12-11T12:20:51.808Z,10.10
2018-12-11T12:21:51.707Z,8.80
2018-12-11T12:22:51.619Z,7.50
2018-12-11T12:23:51.502Z,8.10
2018-12-11T12:24:51.405Z,9.30
2018-12-11T12:25:51.296Z,8.80
2018-12-11T12:26:51.195Z,7.40
2018-12-11T12:27:51.106Z,8.70
2018-12-11T12:28:50.986Z,10.70
2018-12-11T12:29:50.885Z,8.90
2018-12-11T12:30:50.779Z,9.20
2018-12-11T12:31:50.685Z,8.30
2018-12-11T12:32:50.601Z,7.90
2018-12-11T12:33:50.480Z,9.50
2018-12-11T12:34:50.377Z,6.20
2018-12-11T12:35:50.275Z,6.90
2018-12-11T12:36:50.174Z,9.70
2018-12-11T12:37:50.086Z,10.90
2018-12-11T12:38:49.970Z,8.10
2018-12-11T12:39:49.863Z,10.00
2018-12-11T12:40:49.765Z,9.50
2018-12-11T12:41:49.658Z,7.10
2018-12-11T12:42:49.576Z,8.90
2018-12-11T12:43:49.457Z,7.70
2018-12-11T12:44:49.354Z,6.50
2018-12-11T12:45:49.251Z,6.60
2018-12-11T12:46:49.892Z,9.00
2018-12-11T12:47:49.067Z,8.40
2018-12-11T12:48:48.942Z,8.00
2018-12-11T12:49:50.790Z,8.10
2018-12-11T12:50:48.741Z,7.30
2018-12-11T12:51:49.512Z,7.90
2018-12-11T12:52:48.559Z,8.90
2018-12-11T12:53:48.441Z,7.70
2018-12-11T12:54:48.329Z,7.40
2018-12-11T12:55:48.230Z,6.50
2018-12-11T12:56:48.131Z,9.40
2018-12-11T12:57:48.041Z,7.90
2018-12-11T12:58:47.927Z,6.60
2018-12-11T12:59:47.817Z,8.00